PWSweather.com
Personal Weather Stations
Station Observations
IONTARIO88
Lincoln, ON L0R

Lincoln, ON L0R

Lat: 43.1763563, Lon: -79.4719525

Elevation: 297

Station Type: Davis Vantage Pro 2 Plus

http://www.beamsvillewx.ca

High Low Average
Temperature 62.3°F16.8°F 51.1°F10.6°F 56.8°F13.8°F
Dew Point 54.9°F12.7°F 48.3°F9.1°F 51.4°F10.8°F
Winds 4.6 mph W7.4 mph W Calm Calm 1.5 mph 2.4 mph
Wind Gusts 9.2 mph14.8 mph -- 3.1 mph5.0 mph
Humidity 91% 69% 82%
Pressure 29.72 in1006.40 in 29.58 in1001.70 in -
Precipitation 0.02 in0.50 in - -
Hour Temp Dew Point Humidity Winds Wind Gusts Pressure Precip Precip Rate Daily Precip Total
12:00 AM 53.7°F12.1°C 50.8°F10.4°C 90% Calm Calm 2.3 mph3.7 kmh 29.72 in1006.4 mb - 0.00 in0.0 mm 0.00 in0.0 mm
12:10 AM 53.5°F11.9°C 50.6°F10.3°C 90% 1.2 mph WSW1.9 kmh WSW 3.5 mph5.6 kmh 29.71 in1006.1 mb - 0.00 in0.0 mm 0.00 in0.0 mm
12:20 AM 53.4°F11.9°C 50.5°F10.3°C 90% 1.2 mph WSW1.9 kmh WSW 2.3 mph3.7 kmh 29.71 in1006.1 mb - 0.00 in0.0 mm 0.00 in0.0 mm
12:30 AM 53.3°F11.8°C 50.4°F10.2°C 90% 1.2 mph WSW1.9 kmh WSW 3.5 mph5.6 kmh 29.71 in1006.1 mb - 0.00 in0.0 mm 0.00 in0.0 mm
12:40 AM 53.2°F11.8°C 50.6°F10.3°C 91% Calm Calm 1.2 mph1.9 kmh 29.71 in1006.1 mb - 0.00 in0.0 mm 0.00 in0.0 mm
12:50 AM 53.1°F11.7°C 50.6°F10.3°C 91% Calm Calm 2.3 mph3.7 kmh 29.71 in1006.1 mb - 0.00 in0.0 mm 0.00 in0.0 mm
01:00 AM 53.1°F11.7°C 50.5°F10.3°C 91% 1.2 mph WSW1.9 kmh WSW 2.3 mph3.7 kmh 29.71 in1006.1 mb - 0.00 in0.0 mm 0.00 in0.0 mm
01:10 AM 53.1°F11.7°C 50.5°F10.3°C 91% 1.2 mph WSW1.9 kmh WSW 2.3 mph3.7 kmh 29.71 in1006.1 mb - 0.00 in0.0 mm 0.00 in0.0 mm
01:20 AM 53.0°F11.7°C 50.1°F10.1°C 90% Calm Calm -- 29.71 in1006.1 mb - 0.00 in0.0 mm 0.00 in0.0 mm
01:30 AM 52.9°F11.6°C 50.0°F10.0°C 90% Calm Calm -- 29.70 in1005.8 mb - 0.00 in0.0 mm 0.00 in0.0 mm
01:40 AM 52.8°F11.6°C 49.9°F9.9°C 90% Calm Calm -- 29.70 in1005.8 mb - 0.00 in0.0 mm 0.00 in0.0 mm
01:50 AM 52.6°F11.4°C 49.5°F9.7°C 89% Calm Calm -- 29.69 in1005.4 mb - 0.00 in0.0 mm 0.00 in0.0 mm
02:00 AM 52.6°F11.4°C 49.4°F9.7°C 89% Calm Calm 3.5 mph5.6 kmh 29.68 in1005.1 mb - 0.00 in0.0 mm 0.00 in0.0 mm
02:10 AM 52.3°F11.3°C 49.2°F9.6°C 89% 1.2 mph WSW1.9 kmh WSW 2.3 mph3.7 kmh 29.68 in1005.1 mb - 0.00 in0.0 mm 0.00 in0.0 mm
02:20 AM 52.1°F11.2°C 49.3°F9.6°C 90% Calm Calm -- 29.68 in1005.1 mb - 0.00 in0.0 mm 0.00 in0.0 mm
02:30 AM 51.9°F11.1°C 49.1°F9.5°C 90% 1.2 mph WSW1.9 kmh WSW 3.5 mph5.6 kmh 29.69 in1005.4 mb - 0.00 in0.0 mm 0.00 in0.0 mm
02:40 AM 51.6°F10.9°C 48.8°F9.3°C 90% 1.2 mph WSW1.9 kmh WSW 3.5 mph5.6 kmh 29.69 in1005.4 mb - 0.00 in0.0 mm 0.00 in0.0 mm
02:50 AM 51.3°F10.7°C 48.5°F9.2°C 90% Calm Calm 3.5 mph5.6 kmh 29.68 in1005.1 mb - 0.00 in0.0 mm 0.00 in0.0 mm
03:00 AM 51.1°F10.6°C 48.3°F9.1°C 90% Calm Calm 1.2 mph1.9 kmh 29.69 in1005.4 mb - 0.00 in0.0 mm 0.00 in0.0 mm
08:40 AM 54.5°F12.5°C 51.0°F10.6°C 88% 4.6 mph W7.4 kmh W 4.6 mph7.4 kmh 29.66 in1004.4 mb - 0.00 in0.0 mm 0.00 in0.0 mm
08:50 AM 55.0°F12.8°C 50.9°F10.5°C 86% 2.3 mph W3.7 kmh W 3.5 mph5.6 kmh 29.67 in1004.7 mb - 0.00 in0.0 mm 0.00 in0.0 mm
09:00 AM 55.2°F12.9°C 51.4°F10.8°C 87% 2.3 mph W3.7 kmh W 3.5 mph5.6 kmh 29.67 in1004.7 mb - 0.00 in0.0 mm 0.00 in0.0 mm
09:10 AM 55.6°F13.1°C 51.5°F10.8°C 86% 2.3 mph W3.7 kmh W 3.5 mph5.6 kmh 29.66 in1004.4 mb - 0.00 in0.0 mm 0.00 in0.0 mm
09:20 AM 56.2°F13.4°C 52.3°F11.3°C 87% Calm Calm 1.2 mph1.9 kmh 29.66 in1004.4 mb - 0.00 in0.0 mm 0.00 in0.0 mm
09:30 AM 57.1°F13.9°C 52.9°F11.6°C 86% 1.2 mph W1.9 kmh W 1.2 mph1.9 kmh 29.66 in1004.4 mb - 0.00 in0.0 mm 0.00 in0.0 mm
09:40 AM 57.7°F14.3°C 52.9°F11.6°C 84% 2.3 mph W3.7 kmh W 3.5 mph5.6 kmh 29.66 in1004.4 mb - 0.00 in0.0 mm 0.00 in0.0 mm
09:50 AM 57.9°F14.4°C 52.4°F11.3°C 82% 3.5 mph N5.6 kmh N 3.5 mph5.6 kmh 29.67 in1004.7 mb - 0.00 in0.0 mm 0.00 in0.0 mm
10:00 AM 57.1°F13.9°C 52.0°F11.1°C 83% 4.6 mph NNW7.4 kmh NNW 6.9 mph11.1 kmh 29.67 in1004.7 mb - 0.00 in0.0 mm 0.00 in0.0 mm
10:10 AM 56.7°F13.7°C 51.9°F11.1°C 84% 2.3 mph NNW3.7 kmh NNW 4.6 mph7.4 kmh 29.66 in1004.4 mb - 0.00 in0.0 mm 0.00 in0.0 mm
10:20 AM 55.9°F13.3°C 51.5°F10.8°C 85% 1.2 mph N1.9 kmh N 2.3 mph3.7 kmh 29.66 in1004.4 mb - 0.00 in0.0 mm 0.00 in0.0 mm
10:30 AM 56.2°F13.4°C 51.8°F11.0°C 85% 3.5 mph NNW5.6 kmh NNW 3.5 mph5.6 kmh 29.66 in1004.4 mb - 0.00 in0.0 mm 0.00 in0.0 mm
10:40 AM 56.6°F13.7°C 51.8°F11.0°C 84% 2.3 mph NNW3.7 kmh NNW 3.5 mph5.6 kmh 29.66 in1004.4 mb - 0.00 in0.0 mm 0.00 in0.0 mm
10:50 AM 57.0°F13.9°C 51.9°F11.1°C 83% 2.3 mph NNW3.7 kmh NNW 4.6 mph7.4 kmh 29.66 in1004.4 mb - 0.00 in0.0 mm 0.00 in0.0 mm
11:00 AM 57.9°F14.4°C 53.0°F11.7°C 84% 2.3 mph NNW3.7 kmh NNW 3.5 mph5.6 kmh 29.66 in1004.4 mb - 0.00 in0.0 mm 0.00 in0.0 mm
11:10 AM 58.6°F14.8°C 53.1°F11.7°C 82% 3.5 mph N5.6 kmh N 6.9 mph11.1 kmh 29.66 in1004.4 mb - 0.00 in0.0 mm 0.00 in0.0 mm
11:20 AM 58.6°F14.8°C 52.5°F11.4°C 80% 2.3 mph N3.7 kmh N 4.6 mph7.4 kmh 29.66 in1004.4 mb - 0.00 in0.0 mm 0.00 in0.0 mm
11:30 AM 58.3°F14.6°C 51.8°F11.0°C 79% 3.5 mph N5.6 kmh N 8.1 mph13.0 kmh 29.66 in1004.4 mb - 0.00 in0.0 mm 0.00 in0.0 mm
11:40 AM 57.0°F13.9°C 50.9°F10.5°C 80% 3.5 mph N5.6 kmh N 4.6 mph7.4 kmh 29.66 in1004.4 mb - 0.00 in0.0 mm 0.00 in0.0 mm
11:50 AM 56.4°F13.6°C 51.0°F10.6°C 82% 2.3 mph N3.7 kmh N 3.5 mph5.6 kmh 29.65 in1004.1 mb - 0.00 in0.0 mm 0.00 in0.0 mm
12:00 PM 56.3°F13.5°C 50.9°F10.5°C 82% 1.2 mph N1.9 kmh N 3.5 mph5.6 kmh 29.65 in1004.1 mb - 0.00 in0.0 mm 0.00 in0.0 mm
12:10 PM 56.9°F13.8°C 51.8°F11.0°C 83% 2.3 mph N3.7 kmh N 3.5 mph5.6 kmh 29.65 in1004.1 mb - 0.00 in0.0 mm 0.00 in0.0 mm
12:20 PM 57.7°F14.3°C 52.2°F11.2°C 82% 2.3 mph N3.7 kmh N 3.5 mph5.6 kmh 29.65 in1004.1 mb - 0.00 in0.0 mm 0.00 in0.0 mm
12:30 PM 58.8°F14.9°C 53.0°F11.7°C 81% 2.3 mph N3.7 kmh N 5.8 mph9.3 kmh 29.64 in1003.7 mb - 0.00 in0.0 mm 0.00 in0.0 mm
12:40 PM 60.1°F15.6°C 53.9°F12.2°C 80% 3.5 mph N5.6 kmh N 5.8 mph9.3 kmh 29.64 in1003.7 mb - 0.00 in0.0 mm 0.00 in0.0 mm
12:50 PM 62.2°F16.8°C 54.9°F12.7°C 77% 3.5 mph N5.6 kmh N 3.5 mph5.6 kmh 29.64 in1003.7 mb - 0.00 in0.0 mm 0.00 in0.0 mm
01:00 PM 62.3°F16.8°C 53.9°F12.2°C 74% 4.6 mph N7.4 kmh N 9.2 mph14.8 kmh 29.63 in1003.4 mb - 0.00 in0.0 mm 0.00 in0.0 mm
01:10 PM 60.0°F15.6°C 52.4°F11.3°C 76% 4.6 mph N7.4 kmh N 6.9 mph11.1 kmh 29.63 in1003.4 mb - 0.00 in0.0 mm 0.00 in0.0 mm
01:20 PM 58.5°F14.7°C 51.3°F10.7°C 77% 3.5 mph N5.6 kmh N 4.6 mph7.4 kmh 29.64 in1003.7 mb - 0.00 in0.0 mm 0.00 in0.0 mm
01:30 PM 58.2°F14.6°C 51.1°F10.6°C 77% 4.6 mph N7.4 kmh N 5.8 mph9.3 kmh 29.64 in1003.7 mb - 0.00 in0.0 mm 0.00 in0.0 mm
01:40 PM 58.2°F14.6°C 52.0°F11.1°C 80% 1.2 mph N1.9 kmh N 4.6 mph7.4 kmh 29.64 in1003.7 mb - 0.00 in0.0 mm 0.00 in0.0 mm
01:50 PM 58.6°F14.8°C 51.8°F11.0°C 78% 3.5 mph N5.6 kmh N 4.6 mph7.4 kmh 29.63 in1003.4 mb - 0.00 in0.0 mm 0.00 in0.0 mm
02:00 PM 58.1°F14.5°C 51.7°F10.9°C 79% 3.5 mph N5.6 kmh N 4.6 mph7.4 kmh 29.63 in1003.4 mb - 0.00 in0.0 mm 0.00 in0.0 mm
02:10 PM 57.8°F14.3°C 51.0°F10.6°C 78% 1.2 mph N1.9 kmh N 3.5 mph5.6 kmh 29.62 in1003.0 mb - 0.00 in0.0 mm 0.00 in0.0 mm
02:20 PM 58.3°F14.6°C 51.8°F11.0°C 79% 1.2 mph N1.9 kmh N 3.5 mph5.6 kmh 29.62 in1003.0 mb - 0.00 in0.0 mm 0.00 in0.0 mm
02:30 PM 58.7°F14.8°C 51.5°F10.8°C 77% 1.2 mph N1.9 kmh N 2.3 mph3.7 kmh 29.62 in1003.0 mb - 0.00 in0.0 mm 0.00 in0.0 mm
02:40 PM 59.1°F15.1°C 51.9°F11.1°C 77% 1.2 mph N1.9 kmh N 3.5 mph5.6 kmh 29.62 in1003.0 mb - 0.00 in0.0 mm 0.00 in0.0 mm
02:50 PM 59.1°F15.1°C 51.2°F10.7°C 75% 1.2 mph N1.9 kmh N 2.3 mph3.7 kmh 29.62 in1003.0 mb - 0.00 in0.0 mm 0.00 in0.0 mm
03:00 PM 59.2°F15.1°C 51.3°F10.7°C 75% 1.2 mph N1.9 kmh N 4.6 mph7.4 kmh 29.62 in1003.0 mb - 0.00 in0.0 mm 0.00 in0.0 mm
03:10 PM 59.7°F15.4°C 51.8°F11.0°C 75% 1.2 mph N1.9 kmh N 3.5 mph5.6 kmh 29.62 in1003.0 mb - 0.00 in0.0 mm 0.00 in0.0 mm
03:20 PM 59.8°F15.4°C 52.2°F11.2°C 76% 3.5 mph N5.6 kmh N 3.5 mph5.6 kmh 29.62 in1003.0 mb - 0.00 in0.0 mm 0.00 in0.0 mm
03:30 PM 59.8°F15.4°C 51.5°F10.8°C 74% 2.3 mph N3.7 kmh N 3.5 mph5.6 kmh 29.62 in1003.0 mb - 0.00 in0.0 mm 0.00 in0.0 mm
03:40 PM 60.5°F15.8°C 52.2°F11.2°C 74% 1.2 mph N1.9 kmh N 2.3 mph3.7 kmh 29.62 in1003.0 mb - 0.00 in0.0 mm 0.00 in0.0 mm
03:50 PM 59.8°F15.4°C 51.1°F10.6°C 73% 1.2 mph N1.9 kmh N 3.5 mph5.6 kmh 29.62 in1003.0 mb - 0.00 in0.0 mm 0.00 in0.0 mm
04:00 PM 59.9°F15.5°C 52.0°F11.1°C 75% 2.3 mph N3.7 kmh N 3.5 mph5.6 kmh 29.62 in1003.0 mb - 0.00 in0.0 mm 0.00 in0.0 mm
04:10 PM 59.9°F15.5°C 52.4°F11.3°C 76% Calm Calm -- 29.61 in1002.7 mb - 0.00 in0.0 mm 0.00 in0.0 mm
04:20 PM 60.6°F15.9°C 52.6°F11.4°C 75% 1.2 mph N1.9 kmh N 3.5 mph5.6 kmh 29.61 in1002.7 mb - 0.00 in0.0 mm 0.00 in0.0 mm
04:30 PM 61.0°F16.1°C 52.3°F11.3°C 73% 4.6 mph N7.4 kmh N 6.9 mph11.1 kmh 29.61 in1002.7 mb - 0.00 in0.0 mm 0.00 in0.0 mm
04:40 PM 60.4°F15.8°C 51.4°F10.8°C 72% 2.3 mph N3.7 kmh N 2.3 mph3.7 kmh 29.61 in1002.7 mb - 0.00 in0.0 mm 0.00 in0.0 mm
04:50 PM 60.0°F15.6°C 51.7°F10.9°C 74% 1.2 mph N1.9 kmh N 3.5 mph5.6 kmh 29.61 in1002.7 mb - 0.00 in0.0 mm 0.00 in0.0 mm
05:00 PM 60.2°F15.7°C 51.9°F11.1°C 74% 2.3 mph N3.7 kmh N 3.5 mph5.6 kmh 29.61 in1002.7 mb - 0.00 in0.0 mm 0.00 in0.0 mm
05:10 PM 60.7°F15.9°C 51.6°F10.9°C 72% 3.5 mph N5.6 kmh N 3.5 mph5.6 kmh 29.61 in1002.7 mb - 0.00 in0.0 mm 0.00 in0.0 mm
05:20 PM 61.2°F16.2°C 50.9°F10.5°C 69% 2.3 mph N3.7 kmh N 4.6 mph7.4 kmh 29.60 in1002.4 mb - 0.00 in0.0 mm 0.00 in0.0 mm
05:30 PM 61.1°F16.2°C 50.8°F10.4°C 69% 1.2 mph N1.9 kmh N 3.5 mph5.6 kmh 29.60 in1002.4 mb - 0.00 in0.0 mm 0.00 in0.0 mm
05:40 PM 61.0°F16.1°C 50.8°F10.4°C 69% 1.2 mph N1.9 kmh N 2.3 mph3.7 kmh 29.60 in1002.4 mb - 0.00 in0.0 mm 0.00 in0.0 mm
05:50 PM 60.9°F16.1°C 50.7°F10.4°C 69% 1.2 mph N1.9 kmh N 2.3 mph3.7 kmh 29.60 in1002.4 mb - 0.00 in0.0 mm 0.00 in0.0 mm
06:00 PM 60.4°F15.8°C 50.6°F10.3°C 70% 1.2 mph N1.9 kmh N 3.5 mph5.6 kmh 29.60 in1002.4 mb - 0.00 in0.0 mm 0.00 in0.0 mm
06:10 PM 60.2°F15.7°C 51.1°F10.6°C 72% Calm Calm 2.3 mph3.7 kmh 29.60 in1002.4 mb - 0.00 in0.0 mm 0.00 in0.0 mm
06:20 PM 60.0°F15.6°C 50.9°F10.5°C 72% 1.2 mph N1.9 kmh N 4.6 mph7.4 kmh 29.59 in1002.0 mb - 0.00 in0.0 mm 0.00 in0.0 mm
06:30 PM 59.5°F15.3°C 51.2°F10.7°C 74% 1.2 mph N1.9 kmh N 3.5 mph5.6 kmh 29.59 in1002.0 mb - 0.00 in0.0 mm 0.00 in0.0 mm
06:40 PM 59.0°F15.0°C 51.1°F10.6°C 75% 2.3 mph N3.7 kmh N 3.5 mph5.6 kmh 29.59 in1002.0 mb - 0.00 in0.0 mm 0.00 in0.0 mm
06:50 PM 59.0°F15.0°C 51.4°F10.8°C 76% 1.2 mph N1.9 kmh N 3.5 mph5.6 kmh 29.59 in1002.0 mb - 0.00 in0.0 mm 0.00 in0.0 mm
07:00 PM 59.0°F15.0°C 51.8°F11.0°C 77% Calm Calm 3.5 mph5.6 kmh 29.58 in1001.7 mb - 0.00 in0.0 mm 0.00 in0.0 mm
07:10 PM 58.8°F14.9°C 52.0°F11.1°C 78% 1.2 mph N1.9 kmh N 2.3 mph3.7 kmh 29.58 in1001.7 mb - 0.00 in0.0 mm 0.00 in0.0 mm
07:20 PM 58.6°F14.8°C 51.8°F11.0°C 78% Calm Calm 2.3 mph3.7 kmh 29.58 in1001.7 mb - 0.00 in0.0 mm 0.00 in0.0 mm
07:30 PM 58.6°F14.8°C 52.1°F11.2°C 79% Calm Calm 1.2 mph1.9 kmh 29.58 in1001.7 mb - 0.00 in0.0 mm 0.00 in0.0 mm
07:40 PM 58.6°F14.8°C 52.1°F11.2°C 79% Calm Calm 2.3 mph3.7 kmh 29.58 in1001.7 mb - 0.00 in0.0 mm 0.00 in0.0 mm
07:50 PM 58.5°F14.7°C 52.4°F11.3°C 80% Calm Calm -- 29.59 in1002.0 mb - 0.00 in0.0 mm 0.00 in0.0 mm
08:00 PM 58.3°F14.6°C 51.8°F11.0°C 79% 1.2 mph NE1.9 kmh NE 1.2 mph1.9 kmh 29.59 in1002.0 mb - 0.00 in0.0 mm 0.00 in0.0 mm
08:10 PM 57.9°F14.4°C 52.4°F11.3°C 82% 1.2 mph NE1.9 kmh NE 3.5 mph5.6 kmh 29.59 in1002.0 mb - 0.00 in0.0 mm 0.00 in0.0 mm
08:20 PM 57.0°F13.9°C 52.5°F11.4°C 85% 1.2 mph NW1.9 kmh NW 1.2 mph1.9 kmh 29.58 in1001.7 mb - 0.01 in0.3 mm 0.01 in0.3 mm
08:30 PM 56.4°F13.6°C 52.3°F11.3°C 86% Calm Calm 2.3 mph3.7 kmh 29.59 in1002.0 mb - 0.00 in0.0 mm 0.01 in0.3 mm
08:40 PM 56.1°F13.4°C 52.3°F11.3°C 87% 1.2 mph NW1.9 kmh NW 2.3 mph3.7 kmh 29.59 in1002.0 mb - 0.00 in0.0 mm 0.01 in0.3 mm
08:50 PM 55.7°F13.2°C 51.9°F11.1°C 87% 1.2 mph NW1.9 kmh NW 2.3 mph3.7 kmh 29.59 in1002.0 mb - 0.00 in0.0 mm 0.01 in0.3 mm
09:00 PM 55.4°F13.0°C 51.6°F10.9°C 87% 1.2 mph NW1.9 kmh NW 3.5 mph5.6 kmh 29.59 in1002.0 mb - 0.00 in0.0 mm 0.01 in0.3 mm
09:10 PM 54.8°F12.7°C 51.0°F10.6°C 87% 2.3 mph NW3.7 kmh NW 3.5 mph5.6 kmh 29.59 in1002.0 mb - 0.00 in0.0 mm 0.01 in0.3 mm
09:20 PM 54.4°F12.4°C 50.9°F10.5°C 88% 2.3 mph NW3.7 kmh NW 3.5 mph5.6 kmh 29.59 in1002.0 mb - 0.00 in0.0 mm 0.01 in0.3 mm
09:30 PM 54.5°F12.5°C 51.3°F10.7°C 89% 1.2 mph WNW1.9 kmh WNW 3.5 mph5.6 kmh 29.61 in1002.7 mb - 0.00 in0.0 mm 0.01 in0.3 mm
09:40 PM 54.6°F12.6°C 51.4°F10.8°C 89% 3.5 mph WNW5.6 kmh WNW 3.5 mph5.6 kmh 29.60 in1002.4 mb - 0.00 in0.0 mm 0.01 in0.3 mm
09:50 PM 54.6°F12.6°C 51.4°F10.8°C 89% Calm Calm 3.5 mph5.6 kmh 29.59 in1002.0 mb - 0.01 in0.3 mm 0.02 in0.5 mm
10:00 PM 54.5°F12.5°C 51.3°F10.7°C 89% 1.2 mph WNW1.9 kmh WNW 2.3 mph3.7 kmh 29.59 in1002.0 mb - 0.00 in0.0 mm 0.02 in0.5 mm
10:10 PM 54.3°F12.4°C 50.8°F10.4°C 88% Calm Calm 2.3 mph3.7 kmh 29.59 in1002.0 mb - 0.00 in0.0 mm 0.02 in0.5 mm
10:20 PM 54.3°F12.4°C 50.8°F10.4°C 88% 1.2 mph WNW1.9 kmh WNW 2.3 mph3.7 kmh 29.59 in1002.0 mb - 0.00 in0.0 mm 0.02 in0.5 mm
10:30 PM 54.1°F12.3°C 50.9°F10.5°C 89% Calm Calm 1.2 mph1.9 kmh 29.59 in1002.0 mb - 0.00 in0.0 mm 0.02 in0.5 mm
10:40 PM 54.0°F12.2°C 50.8°F10.4°C 89% 1.2 mph WNW1.9 kmh WNW 2.3 mph3.7 kmh 29.59 in1002.0 mb - 0.00 in0.0 mm 0.02 in0.5 mm
10:50 PM 53.9°F12.2°C 50.7°F10.4°C 89% Calm Calm -- 29.60 in1002.4 mb - 0.00 in0.0 mm 0.02 in0.5 mm
11:00 PM 53.7°F12.1°C 50.5°F10.3°C 89% Calm Calm 2.3 mph3.7 kmh 29.59 in1002.0 mb - 0.00 in0.0 mm 0.02 in0.5 mm
11:10 PM 53.6°F12.0°C 50.4°F10.2°C 89% Calm Calm 1.2 mph1.9 kmh 29.59 in1002.0 mb - 0.00 in0.0 mm 0.02 in0.5 mm
11:20 PM 53.5°F11.9°C 50.7°F10.4°C 90% Calm Calm -- 29.59 in1002.0 mb - 0.00 in0.0 mm 0.02 in0.5 mm
11:30 PM 53.6°F12.0°C 50.7°F10.4°C 90% Calm Calm -- 29.59 in1002.0 mb - 0.00 in0.0 mm 0.02 in0.5 mm
11:40 PM 53.7°F12.1°C 50.8°F10.4°C 90% Calm Calm -- 29.59 in1002.0 mb - 0.00 in0.0 mm 0.02 in0.5 mm
11:50 PM 53.8°F12.1°C 50.9°F10.5°C 90% Calm Calm -- 29.58 in1001.7 mb - 0.00 in0.0 mm 0.02 in0.5 mm